createdAt,value
2022-10-25T00:00:02.491Z,93.62
2022-10-25T00:01:02.124Z,94.13
2022-10-25T00:02:03.822Z,93.87
2022-10-25T00:03:03.413Z,93.77
2022-10-25T00:04:03.341Z,94.18
2022-10-25T00:05:03.182Z,93.77
2022-10-25T00:06:03.351Z,93.87
2022-10-25T00:07:02.298Z,93.87
2022-10-25T00:08:02.455Z,93.97
2022-10-25T00:09:02.789Z,93.87
2022-10-25T00:10:02.598Z,93.87
2022-10-25T00:11:02.794Z,93.67
2022-10-25T00:12:03.500Z,94.07
2022-10-25T00:13:03.108Z,94.42
2022-10-25T00:14:02.942Z,94.32
2022-10-25T00:15:02.951Z,94.53
2022-10-25T00:16:02.895Z,94.32
2022-10-25T00:17:03.023Z,94.53
2022-10-25T00:18:03.343Z,94.62
2022-10-25T00:19:02.994Z,94.73
2022-10-25T00:20:02.827Z,94.93
2022-10-25T00:22:03.076Z,95.18
2022-10-25T00:23:03.401Z,95.07
2022-10-25T00:24:03.283Z,95.07
2022-10-25T00:25:03.386Z,95.28
2022-10-25T00:26:03.412Z,95.48
2022-10-25T00:27:02.293Z,95.79
2022-10-25T00:28:02.751Z,95.79
2022-10-25T00:29:02.569Z,95.79
2022-10-25T00:30:02.383Z,95.79
2022-10-25T00:31:02.309Z,95.79
2022-10-25T00:32:03.403Z,96.03
2022-10-25T00:33:02.946Z,96.34
2022-10-25T00:34:03.181Z,96.44
2022-10-25T00:35:03.250Z,96.54
2022-10-25T00:36:03.077Z,96.54
2022-10-25T00:37:03.074Z,96.64
2022-10-25T00:38:03.435Z,96.84
2022-10-25T00:39:03.281Z,97.05
2022-10-25T00:40:02.965Z,97.25
2022-10-25T00:41:03.290Z,97.05
2022-10-25T00:42:03.121Z,97.05
2022-10-25T00:43:03.613Z,97.15
2022-10-25T00:44:03.499Z,96.75
2022-10-25T00:45:03.288Z,96.84
2022-10-25T00:46:03.162Z,96.75
2022-10-25T00:47:02.802Z,96.44
2022-10-25T00:48:02.756Z,96.54
2022-10-25T00:49:02.740Z,96.14
2022-10-25T00:50:03.229Z,96.14
2022-10-25T00:51:03.123Z,96.23
2022-10-25T00:52:03.013Z,96.34
2022-10-25T00:53:03.354Z,96.44
2022-10-25T00:54:03.144Z,96.14
2022-10-25T00:55:03.014Z,96.34
2022-10-25T00:56:03.254Z,96.34
2022-10-25T00:57:03.216Z,96.44
2022-10-25T00:58:03.773Z,96.54
2022-10-25T00:59:03.214Z,96.54
2022-10-25T01:00:03.079Z,96.79
2022-10-25T01:01:03.169Z,96.79
2022-10-25T01:02:03.440Z,96.79
2022-10-25T01:03:03.246Z,96.89
2022-10-25T01:04:03.156Z,96.99
2022-10-25T01:05:03.025Z,96.99
2022-10-25T01:06:02.698Z,97.20
2022-10-25T01:07:02.307Z,97.20
2022-10-25T01:08:02.172Z,97.50
2022-10-25T01:09:02.491Z,97.09
2022-10-25T01:10:02.578Z,96.89
2022-10-25T01:11:02.594Z,97.20
2022-10-25T01:12:02.668Z,96.75
2022-10-25T01:13:02.498Z,96.75
2022-10-25T01:14:02.376Z,96.64
2022-10-25T01:15:02.257Z,96.89
2022-10-25T01:16:02.827Z,96.89
2022-10-25T01:17:02.581Z,96.89
2022-10-25T01:18:02.460Z,96.99
2022-10-25T01:19:02.428Z,97.09
2022-10-25T01:20:02.861Z,97.09
2022-10-25T01:21:02.406Z,96.99
2022-10-25T01:22:03.235Z,97.20
2022-10-25T01:23:03.155Z,96.95
2022-10-25T01:24:02.972Z,96.54
2022-10-25T01:25:03.192Z,96.44
2022-10-25T01:26:03.133Z,96.89
2022-10-25T01:27:02.580Z,97.09
2022-10-25T01:28:02.684Z,97.20
2022-10-25T01:29:03.059Z,97.30
2022-10-25T01:30:02.557Z,97.30
2022-10-25T01:31:02.383Z,97.30
2022-10-25T01:32:03.009Z,97.30
2022-10-25T01:33:02.810Z,97.40
2022-10-25T01:34:02.949Z,97.50
2022-10-25T01:35:02.820Z,97.71
2022-10-25T01:36:03.414Z,97.71
2022-10-25T01:37:02.744Z,97.91
2022-10-25T01:38:02.587Z,97.71
2022-10-25T01:39:02.382Z,97.60
2022-10-25T01:40:02.973Z,97.60
2022-10-25T01:41:02.603Z,97.71
2022-10-25T01:42:02.665Z,97.71
2022-10-25T01:43:02.290Z,97.80
2022-10-25T01:44:02.010Z,97.60
2022-10-25T01:45:02.653Z,97.71
2022-10-25T01:46:02.242Z,97.60
2022-10-25T01:47:02.964Z,97.80
2022-10-25T01:48:02.369Z,98.11
2022-10-25T01:49:02.996Z,97.71
2022-10-25T01:50:02.592Z,97.91
2022-10-25T01:51:02.852Z,98.01
2022-10-25T01:52:02.455Z,98.11
2022-10-25T01:53:02.209Z,98.11
2022-10-25T01:54:02.543Z,98.01
2022-10-25T01:55:02.429Z,97.91
2022-10-25T01:56:02.620Z,98.01
2022-10-25T01:57:02.973Z,98.11
2022-10-25T01:58:02.757Z,98.32
2022-10-25T01:59:02.533Z,98.11
2022-10-25T02:00:02.705Z,97.91
2022-10-25T02:01:03.020Z,97.45
2022-10-25T02:02:02.454Z,97.15
2022-10-25T02:03:01.994Z,97.35
2022-10-25T02:04:01.918Z,97.40
2022-10-25T02:05:01.998Z,97.71
2022-10-25T02:06:01.941Z,97.71
2022-10-25T02:07:02.156Z,97.71
2022-10-25T02:08:02.021Z,97.71
2022-10-25T02:09:02.305Z,97.66
2022-10-25T02:10:02.346Z,97.60
2022-10-25T02:11:02.017Z,97.60
2022-10-25T02:12:02.479Z,97.71
2022-10-25T02:13:02.521Z,97.71
2022-10-25T02:14:02.172Z,97.80
2022-10-25T02:15:02.752Z,97.71
2022-10-25T02:16:02.733Z,97.71
2022-10-25T02:17:02.065Z,97.80
2022-10-25T02:18:01.779Z,97.50
2022-10-25T02:19:01.850Z,97.60
2022-10-25T02:20:01.737Z,97.71
2022-10-25T02:21:02.094Z,97.91
2022-10-25T02:22:02.552Z,98.01
2022-10-25T02:23:02.634Z,97.60
2022-10-25T02:24:02.428Z,97.71
2022-10-25T02:25:02.250Z,97.71
2022-10-25T02:26:02.789Z,97.71
2022-10-25T02:27:02.113Z,97.80
2022-10-25T02:28:01.989Z,97.80
2022-10-25T02:29:01.752Z,98.01
2022-10-25T02:30:02.093Z,98.01
2022-10-25T02:31:01.961Z,98.01
2022-10-25T02:32:02.438Z,97.71
2022-10-25T02:33:02.155Z,98.01
2022-10-25T02:34:01.856Z,97.45
2022-10-25T02:35:02.511Z,97.50
2022-10-25T02:36:01.940Z,97.45
2022-10-25T02:37:02.568Z,97.25
2022-10-25T02:38:02.464Z,97.60
2022-10-25T02:39:02.324Z,97.56
2022-10-25T02:40:02.177Z,97.35
2022-10-25T02:41:01.939Z,97.35
2022-10-25T02:42:02.715Z,97.76
2022-10-25T02:43:02.693Z,97.15
2022-10-25T02:44:02.715Z,97.15
2022-10-25T02:45:02.632Z,97.25
2022-10-25T02:46:02.630Z,96.64
2022-10-25T02:47:01.595Z,96.54
2022-10-25T02:48:02.141Z,96.64
2022-10-25T02:49:01.759Z,96.84
2022-10-25T02:50:01.601Z,96.44
2022-10-25T02:51:02.147Z,96.14
2022-10-25T02:52:02.653Z,96.23
2022-10-25T02:53:02.207Z,96.34
2022-10-25T02:54:02.053Z,95.94
2022-10-25T02:55:02.129Z,96.23
2022-10-25T02:56:02.550Z,96.44
2022-10-25T02:57:02.450Z,95.94
2022-10-25T02:58:03.039Z,96.34
2022-10-25T02:59:02.371Z,96.23
2022-10-25T03:00:02.794Z,96.03
2022-10-25T03:01:02.950Z,96.23
2022-10-25T03:02:02.250Z,96.44
2022-10-25T03:03:01.644Z,96.59
2022-10-25T03:04:01.773Z,96.59
2022-10-25T03:05:02.268Z,96.69
2022-10-25T03:06:01.890Z,96.54
2022-10-25T03:07:01.893Z,96.48
2022-10-25T03:08:02.209Z,96.79
2022-10-25T03:09:02.196Z,96.59
2022-10-25T03:10:02.100Z,96.59
2022-10-25T03:11:01.808Z,96.34
2022-10-25T03:12:02.160Z,96.44
2022-10-25T03:13:02.524Z,96.03
2022-10-25T03:14:02.558Z,95.83
2022-10-25T03:15:02.542Z,96.03
2022-10-25T03:16:02.732Z,95.73
2022-10-25T03:17:02.425Z,95.83
2022-10-25T03:18:02.683Z,95.63
2022-10-25T03:19:02.507Z,95.42
2022-10-25T03:20:02.421Z,95.32
2022-10-25T03:21:02.825Z,95.12
2022-10-25T03:22:02.190Z,95.32
2022-10-25T03:23:02.056Z,95.32
2022-10-25T03:24:01.797Z,95.94
2022-10-25T03:25:02.424Z,96.08
2022-10-25T03:26:02.107Z,96.59
2022-10-25T03:27:02.215Z,96.79
2022-10-25T03:28:01.980Z,96.59
2022-10-25T03:29:02.524Z,96.03
2022-10-25T03:30:02.094Z,96.03
2022-10-25T03:31:02.808Z,95.94
2022-10-25T03:32:02.457Z,96.14
2022-10-25T03:33:02.960Z,95.94
2022-10-25T03:34:02.821Z,96.03
2022-10-25T03:35:02.956Z,95.94
2022-10-25T03:36:02.618Z,95.98
2022-10-25T03:37:02.450Z,96.38
2022-10-25T03:38:02.635Z,96.28
2022-10-25T03:39:02.536Z,96.08
2022-10-25T03:40:02.351Z,96.48
2022-10-25T03:41:02.028Z,96.18
2022-10-25T03:42:02.551Z,96.59
2022-10-25T03:43:02.751Z,96.59
2022-10-25T03:44:02.705Z,96.69
2022-10-25T03:45:02.707Z,96.79
2022-10-25T03:46:02.468Z,96.89
2022-10-25T03:47:02.472Z,96.69
2022-10-25T03:48:02.360Z,96.89
2022-10-25T03:49:02.247Z,96.79
2022-10-25T03:50:02.295Z,96.69
2022-10-25T03:51:02.242Z,96.79
2022-10-25T03:52:04.180Z,96.59
2022-10-25T03:53:01.925Z,96.79
2022-10-25T03:54:02.500Z,96.69
2022-10-25T03:55:02.285Z,96.69
2022-10-25T03:56:01.967Z,97.30
2022-10-25T03:57:02.881Z,97.09
2022-10-25T03:58:02.782Z,96.79
2022-10-25T03:59:02.499Z,96.84
2022-10-25T04:00:03.007Z,96.89
2022-10-25T04:01:02.872Z,96.95
2022-10-25T04:02:02.440Z,97.05
2022-10-25T04:03:02.975Z,96.95
2022-10-25T04:04:02.818Z,97.30
2022-10-25T04:05:02.431Z,97.25
2022-10-25T04:06:02.439Z,97.35
2022-10-25T04:07:02.254Z,97.25
2022-10-25T04:08:02.474Z,97.45
2022-10-25T04:09:02.303Z,97.56
2022-10-25T04:10:02.182Z,97.35
2022-10-25T04:11:02.486Z,97.25
2022-10-25T04:12:03.044Z,97.35
2022-10-25T04:13:03.010Z,97.25
2022-10-25T04:14:02.635Z,97.05
2022-10-25T04:15:02.825Z,97.05
2022-10-25T04:16:02.741Z,96.90
2022-10-25T04:17:03.011Z,96.60
2022-10-25T04:18:03.034Z,96.80
2022-10-25T04:19:03.176Z,96.50
2022-10-25T04:20:02.921Z,96.30
2022-10-25T04:21:02.803Z,96.30
2022-10-25T04:22:02.795Z,96.19
2022-10-25T04:23:02.391Z,96.30
2022-10-25T04:24:04.354Z,95.99
2022-10-25T04:25:02.487Z,95.99
2022-10-25T04:26:02.441Z,95.89
2022-10-25T04:27:02.924Z,95.79
2022-10-25T04:28:02.795Z,95.58
2022-10-25T04:29:02.986Z,95.68
2022-10-25T04:30:02.875Z,95.28
2022-10-25T04:31:03.369Z,95.68
2022-10-25T04:32:02.675Z,95.23
2022-10-25T04:33:02.351Z,95.23
2022-10-25T04:34:02.864Z,95.13
2022-10-25T04:35:02.676Z,94.93
2022-10-25T04:36:02.522Z,94.73
2022-10-25T04:37:03.061Z,94.62
2022-10-25T04:38:02.892Z,94.48
2022-10-25T04:39:02.723Z,94.27
2022-10-25T04:40:03.103Z,94.27
2022-10-25T04:41:02.892Z,94.07
2022-10-25T04:42:02.480Z,93.97
2022-10-25T04:43:02.296Z,93.97
2022-10-25T04:44:02.602Z,94.38
2022-10-25T04:45:02.034Z,94.38
2022-10-25T04:46:02.473Z,94.27
2022-10-25T04:47:02.974Z,94.07
2022-10-25T04:48:03.014Z,93.87
2022-10-25T04:49:02.902Z,93.77
2022-10-25T04:50:02.693Z,94.18
2022-10-25T04:51:03.198Z,94.18
2022-10-25T04:52:02.503Z,94.58
2022-10-25T04:53:02.200Z,94.78
2022-10-25T04:54:02.628Z,94.38
2022-10-25T04:55:02.330Z,94.62
2022-10-25T04:56:02.288Z,94.83
2022-10-25T04:57:02.707Z,94.48
2022-10-25T04:58:02.614Z,94.27
2022-10-25T04:59:03.030Z,94.27
2022-10-25T05:00:02.682Z,94.32
2022-10-25T05:01:03.063Z,94.93
2022-10-25T05:02:02.940Z,94.73
2022-10-25T05:03:02.614Z,95.03
2022-10-25T05:04:02.638Z,94.93
2022-10-25T05:05:02.939Z,94.83
2022-10-25T05:06:02.903Z,94.83
2022-10-25T05:07:02.292Z,94.83
2022-10-25T05:08:02.238Z,95.03
2022-10-25T05:09:01.980Z,94.73
2022-10-25T05:10:01.999Z,94.93
2022-10-25T05:11:02.298Z,94.62
2022-10-25T05:12:02.851Z,95.03
2022-10-25T05:13:02.572Z,94.73
2022-10-25T05:14:02.414Z,94.62
2022-10-25T05:15:02.325Z,94.32
2022-10-25T05:16:02.690Z,94.53
2022-10-25T05:17:03.245Z,94.62
2022-10-25T05:18:03.107Z,94.53
2022-10-25T05:19:02.856Z,94.73
2022-10-25T05:20:03.324Z,95.03
2022-10-25T05:21:03.292Z,95.03
2022-10-25T05:22:03.505Z,94.93
2022-10-25T05:23:03.161Z,94.83
2022-10-25T05:24:03.158Z,94.42
2022-10-25T05:25:03.237Z,94.53
2022-10-25T05:26:03.134Z,94.32
2022-10-25T05:27:02.883Z,94.53
2022-10-25T05:28:02.529Z,94.93
2022-10-25T05:29:04.587Z,95.13
2022-10-25T05:30:02.283Z,94.83
2022-10-25T05:31:02.878Z,95.34
2022-10-25T05:32:02.870Z,95.13
2022-10-25T05:33:04.880Z,95.03
2022-10-25T05:34:02.812Z,94.53
2022-10-25T05:35:02.772Z,94.32
2022-10-25T05:36:02.908Z,94.53
2022-10-25T05:37:03.545Z,94.42
2022-10-25T05:38:03.387Z,94.73
2022-10-25T05:39:03.267Z,94.32
2022-10-25T05:40:03.514Z,94.73
2022-10-25T05:41:03.185Z,94.62
2022-10-25T05:42:02.477Z,94.83
2022-10-25T05:43:03.044Z,94.73
2022-10-25T05:44:02.655Z,94.83
2022-10-25T05:45:02.544Z,94.62
2022-10-25T05:46:03.099Z,94.32
2022-10-25T05:47:02.823Z,94.83
2022-10-25T05:48:03.023Z,94.53
2022-10-25T05:49:03.046Z,94.53
2022-10-25T05:50:02.979Z,94.53
2022-10-25T05:51:14.338Z,94.62
2022-10-25T05:52:03.015Z,94.93
2022-10-25T05:53:03.120Z,94.73
2022-10-25T05:54:03.316Z,94.42
2022-10-25T05:55:03.393Z,94.53
2022-10-25T05:56:03.355Z,94.93
2022-10-25T05:57:02.276Z,94.42
2022-10-25T05:58:02.625Z,94.53
2022-10-25T05:59:02.788Z,94.83
2022-10-25T06:00:02.291Z,94.58
2022-10-25T06:01:02.422Z,94.27
2022-10-25T06:02:03.044Z,94.42
2022-10-25T06:03:02.638Z,94.12
2022-10-25T06:04:02.967Z,94.53
2022-10-25T06:05:02.990Z,94.53
2022-10-25T06:06:03.010Z,94.62
2022-10-25T06:07:03.009Z,94.48
2022-10-25T06:08:03.076Z,94.53
2022-10-25T06:09:03.509Z,94.42
2022-10-25T06:10:05.044Z,94.73
2022-10-25T06:11:03.591Z,94.53
2022-10-25T06:12:04.892Z,94.62
2022-10-25T06:13:02.940Z,94.83
2022-10-25T06:14:02.787Z,94.68
2022-10-25T06:15:02.682Z,94.27
2022-10-25T06:16:02.670Z,93.77
2022-10-25T06:17:03.349Z,93.87
2022-10-25T06:18:03.367Z,93.87
2022-10-25T06:19:03.172Z,94.07
2022-10-25T06:20:03.001Z,94.07
2022-10-25T06:21:03.007Z,94.18
2022-10-25T06:22:02.954Z,94.27
2022-10-25T06:23:03.184Z,94.48
2022-10-25T06:24:03.209Z,94.27
2022-10-25T06:25:03.117Z,94.38
2022-10-25T06:26:03.040Z,94.18
2022-10-25T06:27:03.709Z,93.87
2022-10-25T06:28:03.617Z,93.87
2022-10-25T06:29:03.065Z,93.77
2022-10-25T06:30:03.474Z,94.07
2022-10-25T06:31:03.653Z,94.18
2022-10-25T06:32:02.380Z,94.58
2022-10-25T06:33:02.647Z,94.27
2022-10-25T06:34:02.322Z,94.48
2022-10-25T06:35:02.247Z,94.27
2022-10-25T06:36:02.396Z,94.68
2022-10-25T06:37:03.114Z,94.07
2022-10-25T06:38:03.081Z,93.87
2022-10-25T06:39:05.707Z,94.27
2022-10-25T06:40:03.583Z,94.27
2022-10-25T06:41:03.496Z,94.58
2022-10-25T06:42:02.323Z,94.38
2022-10-25T06:43:02.258Z,94.27
2022-10-25T06:44:06.404Z,94.38
2022-10-25T06:45:02.296Z,94.27
2022-10-25T06:46:02.211Z,94.27
2022-10-25T06:47:16.981Z,94.58
2022-10-25T06:48:03.125Z,94.38
2022-10-25T06:49:03.047Z,94.58
2022-10-25T06:50:03.236Z,94.34
2022-10-25T06:51:03.365Z,94.23
2022-10-25T06:52:03.235Z,94.13
2022-10-25T06:53:03.345Z,94.03
2022-10-25T06:54:02.848Z,94.18
2022-10-25T06:55:03.206Z,94.38
2022-10-25T06:56:04.746Z,94.89
2022-10-25T06:57:03.214Z,94.68
2022-10-25T06:58:03.423Z,94.78
2022-10-25T06:59:03.469Z,94.68
2022-10-25T07:00:03.460Z,94.78
2022-10-25T07:01:03.531Z,94.98
2022-10-25T07:02:03.356Z,95.09
2022-10-25T07:03:03.501Z,95.19
2022-10-25T07:04:03.092Z,95.09
2022-10-25T07:05:03.678Z,94.89
2022-10-25T07:06:03.613Z,94.78
2022-10-25T07:07:02.808Z,94.58
2022-10-25T07:08:02.654Z,94.68
2022-10-25T07:09:02.621Z,94.74
2022-10-25T07:10:02.666Z,94.74
2022-10-25T07:11:02.599Z,94.54
2022-10-25T07:12:03.329Z,93.83
2022-10-25T07:13:03.465Z,94.13
2022-10-25T07:14:03.686Z,94.23
2022-10-25T07:15:03.467Z,94.03
2022-10-25T07:16:03.480Z,94.23
2022-10-25T07:17:03.503Z,93.83
2022-10-25T07:18:03.815Z,93.83
2022-10-25T07:19:03.488Z,93.78
2022-10-25T07:20:03.862Z,93.48
2022-10-25T07:21:03.624Z,93.18
2022-10-25T07:22:02.828Z,93.07
2022-10-25T07:23:05.395Z,92.87
2022-10-25T07:24:02.596Z,93.38
2022-10-25T07:25:03.019Z,93.18
2022-10-25T07:26:02.862Z,92.97
2022-10-25T07:27:02.906Z,92.97
2022-10-25T07:28:02.925Z,92.36
2022-10-25T07:29:02.849Z,92.47
2022-10-25T07:30:02.698Z,92.26
2022-10-25T07:31:02.582Z,92.36
2022-10-25T07:32:03.550Z,92.67
2022-10-25T07:33:03.482Z,92.67
2022-10-25T07:34:03.524Z,92.67
2022-10-25T07:35:03.542Z,92.77
2022-10-25T07:36:11.045Z,92.57
2022-10-25T07:37:03.117Z,92.83
2022-10-25T07:38:03.212Z,92.52
2022-10-25T07:39:03.452Z,92.63
2022-10-25T07:40:03.436Z,92.93
2022-10-25T07:41:03.323Z,93.13
2022-10-25T07:42:02.903Z,93.13
2022-10-25T07:43:02.616Z,92.88
2022-10-25T07:44:02.451Z,92.68
2022-10-25T07:45:02.855Z,92.48
2022-10-25T07:46:03.071Z,92.13
2022-10-25T07:47:03.462Z,92.03
2022-10-25T07:48:03.109Z,91.83
2022-10-25T07:49:03.280Z,91.83
2022-10-25T07:50:03.593Z,91.78
2022-10-25T07:51:03.564Z,91.12
2022-10-25T07:52:03.507Z,91.32
2022-10-25T07:53:03.403Z,91.32
2022-10-25T07:54:03.685Z,91.32
2022-10-25T07:55:03.110Z,91.73
2022-10-25T07:56:03.559Z,91.78
2022-10-25T07:57:03.527Z,91.78
2022-10-25T07:58:03.315Z,90.78
2022-10-25T07:59:03.371Z,91.18
2022-10-25T08:00:03.310Z,90.67
2022-10-25T08:01:03.592Z,91.08
2022-10-25T08:02:03.149Z,90.58
2022-10-25T08:03:03.179Z,91.28
2022-10-25T08:04:03.154Z,90.67
2022-10-25T08:05:03.243Z,89.76
2022-10-25T08:06:02.919Z,89.87
2022-10-25T08:07:03.136Z,90.47
2022-10-25T08:08:03.099Z,89.87
2022-10-25T08:09:14.206Z,90.27
2022-10-25T08:10:03.201Z,90.17
2022-10-25T08:11:03.051Z,90.43
2022-10-25T08:12:02.816Z,90.12
2022-10-25T08:13:02.749Z,89.83
2022-10-25T08:14:02.273Z,89.52
2022-10-25T08:15:02.265Z,89.72
2022-10-25T08:16:02.352Z,88.81
2022-10-25T08:17:02.844Z,89.32
2022-10-25T08:18:02.942Z,89.01
2022-10-25T08:19:02.563Z,88.41
2022-10-25T08:20:02.427Z,87.70
2022-10-25T08:21:03.830Z,88.61
2022-10-25T08:22:03.018Z,88.81
2022-10-25T08:23:02.745Z,89.17
2022-10-25T08:24:02.781Z,88.37
2022-10-25T08:25:02.738Z,88.87
2022-10-25T08:26:02.665Z,88.47
2022-10-25T08:27:03.329Z,88.47
2022-10-25T08:28:03.207Z,87.96
2022-10-25T08:29:03.134Z,88.26
2022-10-25T08:30:03.072Z,88.47
2022-10-25T08:31:03.336Z,88.02
2022-10-25T08:32:03.360Z,88.02
2022-10-25T08:33:03.317Z,86.10
2022-10-25T08:34:03.374Z,86.55
2022-10-25T08:35:03.111Z,87.62
2022-10-25T08:36:03.442Z,87.12
2022-10-25T08:37:02.938Z,87.52
2022-10-25T08:38:02.723Z,86.10
2022-10-25T08:39:02.532Z,86.75
2022-10-25T08:40:02.958Z,87.05
2022-10-25T08:41:02.658Z,87.62
2022-10-25T08:42:02.967Z,87.32
2022-10-25T08:43:03.337Z,86.30
2022-10-25T08:44:03.330Z,86.30
2022-10-25T08:45:03.044Z,86.51
2022-10-25T08:46:03.515Z,86.41
2022-10-25T08:47:03.574Z,87.01
2022-10-25T08:48:03.122Z,86.71
2022-10-25T08:49:02.957Z,86.00
2022-10-25T08:50:03.175Z,85.80
2022-10-25T08:51:03.642Z,85.60
2022-10-25T08:52:02.241Z,85.80
2022-10-25T08:53:02.895Z,85.50
2022-10-25T08:54:02.543Z,86.67
2022-10-25T08:55:04.879Z,86.27
2022-10-25T08:56:16.251Z,86.67
2022-10-25T08:57:15.107Z,85.56
2022-10-25T08:58:02.623Z,84.15
2022-10-25T08:59:03.037Z,84.65
2022-10-25T09:00:03.054Z,85.86
2022-10-25T09:01:03.327Z,86.02
2022-10-25T09:02:02.273Z,84.91
2022-10-25T09:03:02.161Z,84.81
2022-10-25T09:04:02.388Z,85.22
2022-10-25T09:05:02.397Z,85.11
2022-10-25T09:06:02.337Z,85.72
2022-10-25T09:07:02.473Z,85.78
2022-10-25T09:08:03.085Z,84.77
2022-10-25T09:09:02.569Z,84.27
2022-10-25T09:10:03.150Z,84.07
2022-10-25T09:11:03.010Z,84.47
2022-10-25T09:12:02.087Z,84.33
2022-10-25T09:13:03.250Z,83.02
2022-10-25T09:14:02.487Z,82.05
2022-10-25T09:15:02.500Z,83.02
2022-10-25T09:16:02.225Z,82.51
2022-10-25T09:17:02.722Z,82.51
2022-10-25T09:18:02.242Z,82.62
2022-10-25T09:19:02.380Z,81.61
2022-10-25T09:20:02.323Z,82.51
2022-10-25T09:21:02.353Z,82.01
2022-10-25T09:22:02.740Z,82.21
2022-10-25T09:23:02.630Z,81.01
2022-10-25T09:24:02.797Z,80.60
2022-10-25T09:25:02.743Z,82.31
2022-10-25T09:26:02.637Z,82.21
2022-10-25T09:27:02.644Z,83.02
2022-10-25T09:28:03.056Z,82.98
2022-10-25T09:29:02.848Z,82.48
2022-10-25T09:30:05.212Z,81.07
2022-10-25T09:31:02.944Z,80.90
2022-10-25T09:32:02.906Z,81.01
2022-10-25T09:33:02.962Z,81.91
2022-10-25T09:34:04.272Z,81.01
2022-10-25T09:35:03.074Z,81.61
2022-10-25T09:36:02.903Z,81.81
2022-10-25T09:37:02.653Z,82.82
2022-10-25T09:38:02.579Z,83.08
2022-10-25T09:39:02.988Z,81.37
2022-10-25T09:40:02.559Z,81.57
2022-10-25T09:41:02.625Z,81.47
2022-10-25T09:42:02.028Z,83.04
2022-10-25T09:43:02.139Z,82.24
2022-10-25T09:44:02.520Z,82.64
2022-10-25T09:45:02.395Z,82.14
2022-10-25T09:46:02.123Z,81.53
2022-10-25T09:47:02.775Z,81.03
2022-10-25T09:48:02.677Z,82.14
2022-10-25T09:49:02.685Z,80.83
2022-10-25T09:50:02.991Z,80.52
2022-10-25T09:51:02.923Z,81.63
2022-10-25T09:52:02.489Z,80.73
2022-10-25T09:53:02.264Z,79.42
2022-10-25T09:54:02.249Z,80.93
2022-10-25T09:55:02.702Z,80.63
2022-10-25T09:56:02.640Z,80.43
2022-10-25T09:57:02.643Z,80.22
2022-10-25T09:58:02.647Z,80.22
2022-10-25T09:59:02.546Z,80.73
2022-10-25T10:00:02.421Z,81.43
2022-10-25T10:01:02.524Z,80.93
2022-10-25T10:02:03.347Z,80.83
2022-10-25T10:03:03.606Z,81.13
2022-10-25T10:04:03.427Z,81.03
2022-10-25T10:05:03.323Z,80.52
2022-10-25T10:06:03.377Z,80.12
2022-10-25T10:07:03.372Z,80.32
2022-10-25T10:08:03.658Z,80.73
2022-10-25T10:09:03.158Z,81.33
2022-10-25T10:10:03.155Z,81.59
2022-10-25T10:11:03.739Z,82.20
2022-10-25T10:12:02.629Z,81.29
2022-10-25T10:13:02.604Z,80.58
2022-10-25T10:14:04.975Z,78.88
2022-10-25T10:15:02.352Z,78.78
2022-10-25T10:16:02.353Z,79.99
2022-10-25T10:17:02.882Z,80.29
2022-10-25T10:18:03.171Z,79.18
2022-10-25T10:19:02.808Z,78.88
2022-10-25T10:20:03.274Z,78.98
2022-10-25T10:21:03.104Z,80.19
2022-10-25T10:22:02.953Z,79.14
2022-10-25T10:23:06.313Z,78.54
2022-10-25T10:24:02.805Z,77.67
2022-10-25T10:25:03.110Z,78.47
2022-10-25T10:26:02.875Z,78.17
2022-10-25T10:27:02.687Z,79.48
2022-10-25T10:28:02.505Z,79.58
2022-10-25T10:29:06.487Z,79.79
2022-10-25T10:30:02.501Z,78.88
2022-10-25T10:31:02.441Z,77.87
2022-10-25T10:32:03.159Z,78.78
2022-10-25T10:33:03.066Z,78.78
2022-10-25T10:34:03.376Z,77.67
2022-10-25T10:35:03.341Z,79.08
2022-10-25T10:36:03.125Z,79.38
2022-10-25T10:37:02.802Z,78.58
2022-10-25T10:38:02.736Z,78.01
2022-10-25T10:39:03.608Z,78.27
2022-10-25T10:40:03.085Z,78.21
2022-10-25T10:41:02.841Z,77.70
2022-10-25T10:42:03.547Z,77.20
2022-10-25T10:43:03.506Z,77.20
2022-10-25T10:44:03.455Z,76.70
2022-10-25T10:45:03.539Z,77.61
2022-10-25T10:46:03.578Z,77.40
2022-10-25T10:47:03.322Z,76.10
2022-10-25T10:48:03.435Z,77.40
2022-10-25T10:49:03.350Z,77.91
2022-10-25T10:50:03.419Z,77.70
2022-10-25T10:51:04.703Z,78.58
2022-10-25T10:52:03.057Z,78.47
2022-10-25T10:53:03.015Z,76.67
2022-10-25T10:54:03.039Z,76.87
2022-10-25T10:55:02.965Z,76.46
2022-10-25T10:56:02.698Z,75.66
2022-10-25T10:57:03.397Z,76.97
2022-10-25T10:58:03.374Z,77.67
2022-10-25T10:59:03.603Z,78.14
2022-10-25T11:00:03.182Z,75.82
2022-10-25T11:01:03.445Z,76.32
2022-10-25T11:02:02.765Z,76.12
2022-10-25T11:03:02.651Z,75.52
2022-10-25T11:04:02.550Z,75.62
2022-10-25T11:05:02.555Z,75.62
2022-10-25T11:06:02.584Z,75.62
2022-10-25T11:07:02.944Z,75.12
2022-10-25T11:09:02.774Z,75.72
2022-10-25T11:10:02.812Z,74.72
2022-10-25T11:11:02.781Z,76.43
2022-10-25T11:12:03.089Z,76.73
2022-10-25T11:13:03.033Z,76.12
2022-10-25T11:14:02.718Z,75.42
2022-10-25T11:15:02.673Z,76.32
2022-10-25T11:16:02.697Z,77.09
2022-10-25T11:17:03.332Z,77.39
2022-10-25T11:18:03.218Z,77.90
2022-10-25T11:19:03.173Z,76.15
2022-10-25T11:20:03.191Z,75.65
2022-10-25T11:21:03.276Z,75.05
2022-10-25T11:22:02.891Z,75.38
2022-10-25T11:23:05.139Z,75.29
2022-10-25T11:24:02.499Z,75.89
2022-10-25T11:25:02.374Z,75.49
2022-10-25T11:26:02.401Z,75.99
2022-10-25T11:27:02.900Z,76.29
2022-10-25T11:28:03.038Z,76.76
2022-10-25T11:29:02.718Z,76.65
2022-10-25T11:30:02.462Z,74.85
2022-10-25T11:31:02.401Z,74.28
2022-10-25T11:32:03.482Z,73.98
2022-10-25T11:33:03.406Z,75.09
2022-10-25T11:34:05.586Z,76.29
2022-10-25T11:35:03.095Z,75.68
2022-10-25T11:36:03.230Z,73.58
2022-10-25T11:37:02.951Z,74.98
2022-10-25T11:38:02.563Z,75.75
2022-10-25T11:39:02.586Z,74.65
2022-10-25T11:40:02.563Z,75.05
2022-10-25T11:41:02.616Z,75.05
2022-10-25T11:42:02.789Z,75.55
2022-10-25T11:43:03.037Z,74.95
2022-10-25T11:44:02.987Z,75.11
2022-10-25T11:45:02.776Z,73.84
2022-10-25T11:46:02.802Z,73.74
2022-10-25T11:47:02.081Z,73.74
2022-10-25T11:48:02.141Z,73.24
2022-10-25T11:49:02.630Z,74.85
2022-10-25T11:50:02.606Z,74.01
2022-10-25T11:51:02.521Z,75.11
2022-10-25T11:52:02.515Z,73.71
2022-10-25T11:53:02.852Z,74.71
2022-10-25T11:54:02.834Z,74.18
2022-10-25T11:55:02.820Z,74.07
2022-10-25T11:56:02.817Z,74.77
2022-10-25T11:57:02.819Z,74.57
2022-10-25T11:58:05.663Z,74.98
2022-10-25T11:59:03.054Z,74.77
2022-10-25T12:00:03.167Z,75.64
2022-10-25T12:01:03.438Z,74.34
2022-10-25T12:02:03.312Z,74.24
2022-10-25T12:03:02.429Z,74.44
2022-10-25T12:04:02.836Z,74.44
2022-10-25T12:05:03.018Z,74.90
2022-10-25T12:06:02.814Z,73.90
2022-10-25T12:07:02.583Z,71.80
2022-10-25T12:08:03.170Z,71.83
2022-10-25T12:09:03.261Z,71.83
2022-10-25T12:10:02.911Z,72.06
2022-10-25T12:11:02.970Z,72.17
2022-10-25T12:12:03.371Z,72.67
2022-10-25T12:13:03.184Z,73.97
2022-10-25T12:14:02.941Z,72.37
2022-10-25T12:15:02.875Z,72.90
2022-10-25T12:16:02.997Z,73.30
2022-10-25T12:17:02.979Z,74.98
2022-10-25T12:18:02.807Z,74.18
2022-10-25T12:19:03.058Z,73.27
2022-10-25T12:20:02.978Z,72.20
2022-10-25T12:21:02.989Z,73.00
2022-10-25T12:22:02.984Z,74.41
2022-10-25T12:23:02.673Z,75.08
2022-10-25T12:24:02.600Z,74.48
2022-10-25T12:25:02.572Z,74.37
2022-10-25T12:26:02.597Z,74.18
2022-10-25T12:27:02.585Z,74.88
2022-10-25T12:28:03.003Z,75.58
2022-10-25T12:29:02.908Z,75.68
2022-10-25T12:30:03.577Z,75.68
2022-10-25T12:31:03.299Z,73.67
2022-10-25T12:32:03.395Z,73.07
2022-10-25T12:33:02.429Z,73.91
2022-10-25T12:34:02.385Z,74.71
2022-10-25T12:35:02.425Z,75.82
2022-10-25T12:36:02.305Z,75.01
2022-10-25T12:37:02.189Z,75.21
2022-10-25T12:38:02.527Z,75.62
2022-10-25T12:39:03.063Z,74.41
2022-10-25T12:40:02.771Z,74.51
2022-10-25T12:41:03.104Z,75.21
2022-10-25T12:42:02.821Z,73.10
2022-10-25T12:43:02.503Z,72.50
2022-10-25T12:44:02.176Z,73.61
2022-10-25T12:45:02.302Z,74.81
2022-10-25T12:46:02.402Z,73.67
2022-10-25T12:47:02.449Z,72.56
2022-10-25T12:48:03.408Z,73.57
2022-10-25T12:49:02.808Z,73.44
2022-10-25T12:50:02.944Z,74.14
2022-10-25T12:51:03.014Z,72.13
2022-10-25T12:52:03.021Z,71.13
2022-10-25T12:53:02.818Z,72.74
2022-10-25T12:54:02.617Z,72.63